메인 페이지
METAR-TAF:

METAR-TAF

공항 :

바레인 국제공항

바레인, 바레인

위도: 26-16N, 경도: 050-39E, 고도: 2m

현재 날씨관측

예보는 11분 전, 05:00시(UTC)에 발표되었습니다.
북서16kt
온도 36°C
습도 47%
기압 997 hPa
시정 10km 이상
1500m 미만 상공 구름 및 적란운 없음

METAR: OBBI 220500Z 32016KT CAVOK 36/23 Q0997 NOSIG

시각: 08:11 (05:11 UTC)

예보

예보는 6 시간 11분 전, 23:00시(UTC)에 발표되었습니다.
예보 대상 시간: 22일 00시부터 23일 06시까지 (UTC)
북서12kt
시정 10km 이상
1500m 미만 상공 구름 및 적란운 없음
확률 30% :
일시적
22일 00시부터 22일 05시까지 (UTC)
시정: 4000m
황사
전환 중
22일 03시부터 22일 05시까지 (UTC)
북북서18kt, 순간 최대 풍속 28kt
확률 30% :
일시적
22일 18시부터 23일 03시까지 (UTC)
시정: 5000m
황사

TAF: OBBI 212300Z 2200/2306 31012KT CAVOK PROB30 TEMPO 2200/2205 4000 DU NSC BECMG 2203/2205 33018G28KT PROB30 TEMPO 2218/2303 5000 DU NSC

4,000개 이상의 공항 관측 자료 및 예보 (METAR 및 TAF 보고).

지도상에서 검색 가능한 기상관측소가 노란 점과 빨간 점으로 표시되어 있습니다.

기상관측소 명을 보려면 표시 위로 마우스를 이동하세요.

날씨 관측과 예보를 보려면 클릭하세요.

지도 변경 : 확대하려면 엑스 표시가 있는 녹색 버튼, 축소하려면 빼기 표시가 있는 녹색 버튼, 다음 페이지의 지도를 보려면 녹색 화살표를 클릭하세요.


METAR-TAF: